createdAt,value
2018-08-31T00:00:57.907Z,24.02
2018-08-31T00:03:23.880Z,24.04
2018-08-31T00:05:49.852Z,23.99
2018-08-31T00:08:15.860Z,24.07
2018-08-31T00:10:41.838Z,24.04
2018-08-31T00:13:07.838Z,24.05
2018-08-31T00:15:33.802Z,24.06
2018-08-31T00:17:59.757Z,24.06
2018-08-31T00:20:25.760Z,24.03
2018-08-31T00:22:51.704Z,24.02
2018-08-31T00:25:17.688Z,24.03
2018-08-31T00:27:43.630Z,23.99
2018-08-31T00:30:09.703Z,24.03
2018-08-31T00:32:35.728Z,24.00
2018-08-31T00:35:01.700Z,24.02
2018-08-31T00:37:27.674Z,23.99
2018-08-31T00:39:53.610Z,24.02
2018-08-31T00:42:19.551Z,24.00
2018-08-31T00:44:45.499Z,24.03
2018-08-31T00:47:11.430Z,24.02
2018-08-31T00:49:37.378Z,23.95
2018-08-31T00:52:03.331Z,24.01
2018-08-31T00:54:29.305Z,24.02
2018-08-31T00:56:55.420Z,23.97
2018-08-31T00:59:21.404Z,24.02
2018-08-31T01:01:47.344Z,24.01
2018-08-31T01:04:13.311Z,24.00
2018-08-31T01:06:39.283Z,23.99
2018-08-31T01:09:05.229Z,24.01
2018-08-31T01:11:31.208Z,23.96
2018-08-31T01:13:57.149Z,23.95
2018-08-31T01:16:23.126Z,23.95
2018-08-31T01:18:49.163Z,23.96
2018-08-31T01:21:15.143Z,23.97
2018-08-31T01:23:41.109Z,23.98
2018-08-31T01:26:07.052Z,23.97
2018-08-31T01:28:32.991Z,23.93
2018-08-31T01:30:58.960Z,23.98
2018-08-31T01:33:24.919Z,23.96
2018-08-31T01:35:50.963Z,23.98
2018-08-31T01:38:16.924Z,23.93
2018-08-31T01:40:42.876Z,23.98
2018-08-31T01:43:08.823Z,23.93
2018-08-31T01:45:34.759Z,23.91
2018-08-31T01:48:00.732Z,23.88
2018-08-31T01:50:26.679Z,23.91
2018-08-31T01:52:52.817Z,23.92
2018-08-31T01:55:18.602Z,23.93
2018-08-31T01:57:44.568Z,23.94
2018-08-31T02:00:10.542Z,23.88
2018-08-31T02:02:36.489Z,23.90
2018-08-31T02:05:02.432Z,23.85
2018-08-31T02:07:28.424Z,23.91
2018-08-31T02:09:54.380Z,23.92
2018-08-31T02:12:20.319Z,23.89
2018-08-31T02:14:46.278Z,23.90
2018-08-31T02:17:12.286Z,23.92
2018-08-31T02:19:38.227Z,23.89
2018-08-31T02:22:04.284Z,23.86
2018-08-31T02:24:30.235Z,23.85
2018-08-31T02:26:56.190Z,23.81
2018-08-31T02:29:22.219Z,23.83
2018-08-31T02:31:48.184Z,23.86
2018-08-31T02:34:14.228Z,23.85
2018-08-31T02:36:40.193Z,23.88
2018-08-31T02:39:06.395Z,23.87
2018-08-31T02:41:32.415Z,23.92
2018-08-31T02:43:58.360Z,23.88
2018-08-31T02:46:24.328Z,23.82
2018-08-31T02:48:50.295Z,23.82
2018-08-31T02:51:16.324Z,23.85
2018-08-31T02:53:42.279Z,23.81
2018-08-31T02:56:08.233Z,23.81
2018-08-31T02:58:34.204Z,23.81
2018-08-31T03:01:00.243Z,23.87
2018-08-31T03:03:26.213Z,23.88
2018-08-31T03:05:52.176Z,23.87
2018-08-31T03:08:18.120Z,23.84
2018-08-31T03:10:44.084Z,23.88
2018-08-31T03:13:10.040Z,23.85
2018-08-31T03:15:35.992Z,23.81
2018-08-31T03:18:01.935Z,23.89
2018-08-31T03:20:27.899Z,23.88
2018-08-31T03:22:53.835Z,23.85
2018-08-31T03:25:19.917Z,23.86
2018-08-31T03:27:45.944Z,23.85
2018-08-31T03:30:11.912Z,23.85
2018-08-31T03:32:37.915Z,23.80
2018-08-31T03:35:03.883Z,23.82
2018-08-31T03:37:29.827Z,23.81
2018-08-31T03:39:55.882Z,23.85
2018-08-31T03:42:21.882Z,23.84
2018-08-31T03:44:47.864Z,23.79
2018-08-31T03:47:13.873Z,23.79
2018-08-31T03:49:39.853Z,23.85
2018-08-31T03:52:05.816Z,23.91
2018-08-31T03:54:31.854Z,23.81
2018-08-31T03:56:57.796Z,23.80
2018-08-31T03:59:23.816Z,23.84
2018-08-31T04:01:49.790Z,23.84
2018-08-31T04:04:15.789Z,23.82
2018-08-31T04:06:41.758Z,23.80
2018-08-31T04:09:07.696Z,23.75
2018-08-31T04:11:33.645Z,23.93
2018-08-31T04:13:59.575Z,23.82
2018-08-31T04:16:25.604Z,23.78
2018-08-31T04:18:51.720Z,23.80
2018-08-31T04:21:17.665Z,23.81
2018-08-31T04:23:43.612Z,23.81
2018-08-31T04:26:09.560Z,23.80
2018-08-31T04:28:35.509Z,23.81
2018-08-31T04:31:01.468Z,23.78
2018-08-31T04:33:27.450Z,23.79
2018-08-31T04:35:53.431Z,23.83
2018-08-31T04:38:19.391Z,23.80
2018-08-31T04:40:45.339Z,23.78
2018-08-31T04:43:11.293Z,23.78
2018-08-31T04:45:37.252Z,23.79
2018-08-31T04:48:03.220Z,23.78
2018-08-31T04:50:29.243Z,23.79
2018-08-31T04:52:55.113Z,23.81
2018-08-31T04:55:21.066Z,23.82
2018-08-31T04:57:47.012Z,23.84
2018-08-31T05:00:12.984Z,23.82
2018-08-31T05:02:38.933Z,23.79
2018-08-31T05:05:04.897Z,23.79
2018-08-31T05:07:30.863Z,23.79
2018-08-31T05:09:56.920Z,23.81
2018-08-31T05:12:22.870Z,23.80
2018-08-31T05:14:48.875Z,23.76
2018-08-31T05:17:14.891Z,23.76
2018-08-31T05:19:40.839Z,23.75
2018-08-31T05:22:06.793Z,23.78
2018-08-31T05:24:32.748Z,23.80
2018-08-31T05:26:58.706Z,23.78
2018-08-31T05:29:24.664Z,23.77
2018-08-31T05:31:50.636Z,23.79
2018-08-31T05:34:16.604Z,23.79
2018-08-31T05:36:42.578Z,23.75
2018-08-31T05:39:08.527Z,23.79
2018-08-31T05:41:34.483Z,23.83
2018-08-31T05:44:00.480Z,23.78
2018-08-31T05:46:26.415Z,23.78
2018-08-31T05:48:52.359Z,23.75
2018-08-31T05:51:18.384Z,23.71
2018-08-31T05:53:44.369Z,23.74
2018-08-31T05:56:10.308Z,23.79
2018-08-31T05:58:36.308Z,23.73
2018-08-31T06:01:02.356Z,23.74
2018-08-31T06:03:28.319Z,23.77
2018-08-31T06:05:54.379Z,23.75
2018-08-31T06:08:20.535Z,23.81
2018-08-31T06:10:46.498Z,23.81
2018-08-31T06:13:12.451Z,23.80
2018-08-31T06:15:38.431Z,23.93
2018-08-31T06:18:04.452Z,23.83
2018-08-31T06:20:30.423Z,23.80
2018-08-31T06:22:56.453Z,23.73
2018-08-31T06:25:22.485Z,23.75
2018-08-31T06:27:48.435Z,23.78
2018-08-31T06:30:14.440Z,23.77
2018-08-31T06:32:40.493Z,23.80
2018-08-31T06:35:06.384Z,23.76
2018-08-31T06:37:32.363Z,23.76
2018-08-31T06:39:58.474Z,23.80
2018-08-31T06:42:24.488Z,23.79
2018-08-31T06:44:50.448Z,23.81
2018-08-31T06:47:16.420Z,23.75
2018-08-31T06:49:42.368Z,23.75
2018-08-31T06:52:08.320Z,23.70
2018-08-31T06:54:34.289Z,23.72
2018-08-31T06:57:00.307Z,23.68
2018-08-31T06:59:26.276Z,23.71
2018-08-31T07:01:52.223Z,23.69
2018-08-31T07:04:18.191Z,23.68
2018-08-31T07:06:44.147Z,23.68
2018-08-31T07:09:10.116Z,23.68
2018-08-31T07:11:36.067Z,23.95
2018-08-31T07:14:02.019Z,23.81
2018-08-31T07:16:27.978Z,23.79
2018-08-31T07:18:53.948Z,23.76
2018-08-31T07:21:19.911Z,23.71
2018-08-31T07:23:45.961Z,23.75
2018-08-31T07:26:11.987Z,23.73
2018-08-31T07:28:37.881Z,23.73
2018-08-31T07:31:03.829Z,23.79
2018-08-31T07:33:29.798Z,23.77
2018-08-31T07:35:55.748Z,23.80
2018-08-31T07:38:21.687Z,23.80
2018-08-31T07:40:47.637Z,23.74
2018-08-31T07:43:13.595Z,23.72
2018-08-31T07:45:39.597Z,23.75
2018-08-31T07:48:05.564Z,23.84
2018-08-31T07:50:31.556Z,23.94
2018-08-31T07:52:57.516Z,23.84
2018-08-31T07:55:23.470Z,23.79
2018-08-31T07:57:49.438Z,23.81
2018-08-31T08:00:15.458Z,23.82
2018-08-31T08:02:41.416Z,23.85
2018-08-31T08:05:07.426Z,23.83
2018-08-31T08:07:33.460Z,23.80
2018-08-31T08:09:59.343Z,23.82
2018-08-31T08:12:25.279Z,23.80
2018-08-31T08:14:51.301Z,23.80
2018-08-31T08:17:17.218Z,23.82
2018-08-31T08:19:43.242Z,23.85
2018-08-31T08:22:09.220Z,23.90
2018-08-31T08:24:35.264Z,23.79
2018-08-31T08:27:01.212Z,23.74
2018-08-31T08:29:27.187Z,23.79
2018-08-31T08:31:53.154Z,23.82
2018-08-31T08:34:19.163Z,23.84
2018-08-31T08:36:45.119Z,23.88
2018-08-31T08:39:11.109Z,23.88
2018-08-31T08:41:37.083Z,23.91
2018-08-31T08:44:03.037Z,23.93
2018-08-31T08:46:29.017Z,23.99
2018-08-31T08:48:54.951Z,23.92
2018-08-31T08:51:20.913Z,23.90
2018-08-31T08:53:46.855Z,23.91
2018-08-31T08:56:12.800Z,23.92
2018-08-31T08:58:38.759Z,23.90
2018-08-31T09:01:04.728Z,23.84
2018-08-31T09:03:30.684Z,23.90
2018-08-31T09:05:56.680Z,23.82
2018-08-31T09:08:22.639Z,23.80
2018-08-31T09:10:48.599Z,23.78
2018-08-31T09:13:14.580Z,23.79
2018-08-31T09:15:40.540Z,23.80
2018-08-31T09:18:06.495Z,23.82
2018-08-31T09:20:32.472Z,23.87
2018-08-31T09:22:58.436Z,23.85
2018-08-31T09:25:24.391Z,23.82
2018-08-31T09:27:50.551Z,23.85
2018-08-31T09:30:16.500Z,23.80
2018-08-31T09:32:42.517Z,23.83
2018-08-31T09:35:08.403Z,23.82
2018-08-31T09:37:34.376Z,23.81
2018-08-31T09:40:00.315Z,23.85
2018-08-31T09:42:26.284Z,23.82
2018-08-31T09:44:52.270Z,23.81
2018-08-31T09:47:18.233Z,23.82
2018-08-31T09:49:44.298Z,23.79
2018-08-31T09:52:10.208Z,23.80
2018-08-31T09:54:36.181Z,23.80
2018-08-31T09:57:02.153Z,23.86
2018-08-31T09:59:28.092Z,23.88
2018-08-31T10:01:54.058Z,23.84
2018-08-31T10:04:20.024Z,23.88
2018-08-31T10:06:46.000Z,23.83
2018-08-31T10:09:11.951Z,23.83
2018-08-31T10:11:37.973Z,23.84
2018-08-31T10:14:03.927Z,23.80
2018-08-31T10:16:29.927Z,23.82
2018-08-31T10:18:55.889Z,23.90
2018-08-31T10:21:21.838Z,23.85
2018-08-31T10:23:47.811Z,23.80
2018-08-31T10:26:13.811Z,23.79
2018-08-31T10:28:39.772Z,23.80
2018-08-31T10:31:05.730Z,23.81
2018-08-31T10:33:31.703Z,23.78
2018-08-31T10:35:57.679Z,23.83
2018-08-31T10:38:23.628Z,23.80
2018-08-31T10:40:49.576Z,23.75
2018-08-31T10:43:15.612Z,23.81
2018-08-31T10:45:41.559Z,23.91
2018-08-31T10:48:07.511Z,23.93
2018-08-31T10:50:33.468Z,23.91
2018-08-31T10:52:59.406Z,23.88
2018-08-31T10:55:25.372Z,23.86
2018-08-31T10:57:51.312Z,23.94
2018-08-31T11:00:17.283Z,23.92
2018-08-31T11:02:43.224Z,23.88
2018-08-31T11:05:09.272Z,23.91
2018-08-31T11:07:35.235Z,23.91
2018-08-31T11:10:01.188Z,23.86
2018-08-31T11:12:27.187Z,23.81
2018-08-31T11:14:53.119Z,23.83
2018-08-31T11:17:19.080Z,23.82
2018-08-31T11:19:44.980Z,23.76
2018-08-31T11:22:10.952Z,23.75
2018-08-31T11:24:36.946Z,23.82
2018-08-31T11:27:02.892Z,24.04
2018-08-31T11:29:28.863Z,23.90
2018-08-31T11:31:54.859Z,23.87
2018-08-31T11:34:20.839Z,23.89
2018-08-31T11:36:46.795Z,23.86
2018-08-31T11:39:12.753Z,23.90
2018-08-31T11:41:38.723Z,23.90
2018-08-31T11:44:04.667Z,23.93
2018-08-31T11:46:30.823Z,23.89
2018-08-31T11:48:56.772Z,23.97
2018-08-31T11:51:22.724Z,23.88
2018-08-31T11:53:48.671Z,23.88
2018-08-31T11:56:14.612Z,23.87
2018-08-31T11:58:40.572Z,23.82
2018-08-31T12:01:06.574Z,24.01
2018-08-31T12:03:32.504Z,23.98
2018-08-31T12:05:58.449Z,23.95
2018-08-31T12:08:24.557Z,23.92
2018-08-31T12:10:50.579Z,23.94
2018-08-31T12:13:16.532Z,23.86
2018-08-31T12:15:42.484Z,23.85
2018-08-31T12:18:08.440Z,23.89
2018-08-31T12:20:34.386Z,23.90
2018-08-31T12:23:00.351Z,23.89
2018-08-31T12:25:26.401Z,23.87
2018-08-31T12:27:52.356Z,23.88
2018-08-31T12:30:18.299Z,23.85
2018-08-31T12:32:44.354Z,23.85
2018-08-31T12:35:10.314Z,23.86
2018-08-31T12:37:36.272Z,23.82
2018-08-31T12:40:02.237Z,23.81
2018-08-31T12:42:28.192Z,23.81
2018-08-31T12:44:54.150Z,23.78
2018-08-31T12:47:20.088Z,23.92
2018-08-31T12:49:46.066Z,23.82
2018-08-31T12:52:12.024Z,23.81
2018-08-31T12:54:38.005Z,23.79
2018-08-31T12:57:03.952Z,23.82
2018-08-31T12:59:29.916Z,23.84
2018-08-31T13:01:55.864Z,23.88
2018-08-31T13:04:21.949Z,23.87
2018-08-31T13:06:47.942Z,23.85
2018-08-31T13:09:13.904Z,23.90
2018-08-31T13:11:39.867Z,23.84
2018-08-31T13:14:05.811Z,23.84
2018-08-31T13:16:31.777Z,23.90
2018-08-31T13:18:57.732Z,23.83
2018-08-31T13:21:23.689Z,23.84
2018-08-31T13:23:49.641Z,23.84
2018-08-31T13:26:15.612Z,23.82
2018-08-31T13:28:41.559Z,23.84
2018-08-31T13:31:07.553Z,23.83
2018-08-31T13:33:33.458Z,23.80
2018-08-31T13:35:59.449Z,23.74
2018-08-31T13:38:25.457Z,23.73
2018-08-31T13:40:51.352Z,23.81
2018-08-31T13:43:17.313Z,23.84
2018-08-31T13:45:43.326Z,23.85
2018-08-31T13:48:09.349Z,23.87
2018-08-31T13:50:35.292Z,23.83
2018-08-31T13:53:01.266Z,23.84
2018-08-31T13:55:27.212Z,23.93
2018-08-31T13:57:53.164Z,23.89
2018-08-31T14:00:19.121Z,23.87
2018-08-31T14:02:45.077Z,23.88
2018-08-31T14:05:11.065Z,23.84
2018-08-31T14:07:37.007Z,23.92
2018-08-31T14:10:02.988Z,23.92
2018-08-31T14:12:28.932Z,23.81
2018-08-31T14:14:54.915Z,23.88
2018-08-31T14:17:20.882Z,23.81
2018-08-31T14:19:47.000Z,23.81
2018-08-31T14:22:13.075Z,23.81
2018-08-31T14:24:39.074Z,23.86
2018-08-31T14:27:05.024Z,23.85
2018-08-31T14:29:31.080Z,23.83
2018-08-31T14:31:56.967Z,23.85
2018-08-31T14:34:22.936Z,23.87
2018-08-31T14:36:49.370Z,23.85
2018-08-31T14:39:15.336Z,23.86
2018-08-31T14:41:41.292Z,23.87
2018-08-31T14:44:07.328Z,23.91
2018-08-31T14:46:33.192Z,23.87
2018-08-31T14:48:59.143Z,23.86
2018-08-31T14:51:25.135Z,23.90
2018-08-31T14:53:51.076Z,23.90
2018-08-31T14:56:17.049Z,23.81
2018-08-31T14:58:43.042Z,23.82
2018-08-31T15:01:09.036Z,23.82
2018-08-31T15:03:35.000Z,23.85
2018-08-31T15:06:01.051Z,23.88
2018-08-31T15:08:27.012Z,23.87
2018-08-31T15:10:52.958Z,23.96
2018-08-31T15:13:18.912Z,23.89
2018-08-31T15:15:44.953Z,23.92
2018-08-31T15:18:10.915Z,23.87
2018-08-31T15:20:36.878Z,23.92
2018-08-31T15:23:02.861Z,23.92
2018-08-31T15:25:28.869Z,23.81
2018-08-31T15:27:54.787Z,23.86
2018-08-31T15:30:20.895Z,23.87
2018-08-31T15:32:46.860Z,23.82
2018-08-31T15:35:12.804Z,23.84
2018-08-31T15:37:38.773Z,23.93
2018-08-31T15:40:04.733Z,23.88
2018-08-31T15:42:30.717Z,23.88
2018-08-31T15:44:56.675Z,23.84
2018-08-31T15:47:22.946Z,23.81
2018-08-31T15:49:49.025Z,23.81
2018-08-31T15:52:14.878Z,23.85
2018-08-31T15:54:40.830Z,23.89
2018-08-31T15:57:06.779Z,23.86
2018-08-31T15:59:32.736Z,23.86
2018-08-31T16:01:58.739Z,23.89
2018-08-31T16:04:24.691Z,23.88
2018-08-31T16:06:50.647Z,23.86
2018-08-31T16:09:16.660Z,23.88
2018-08-31T16:11:42.564Z,23.87
2018-08-31T16:14:08.542Z,23.88
2018-08-31T16:16:34.502Z,23.90
2018-08-31T16:19:00.538Z,23.85
2018-08-31T16:21:26.436Z,23.87
2018-08-31T16:23:52.421Z,23.85
2018-08-31T16:26:18.369Z,23.90
2018-08-31T16:28:44.325Z,23.82
2018-08-31T16:31:10.368Z,23.82
2018-08-31T16:33:36.405Z,23.87
2018-08-31T16:36:02.406Z,23.86
2018-08-31T16:38:28.365Z,23.87
2018-08-31T16:40:54.320Z,23.85
2018-08-31T16:43:20.291Z,23.90
2018-08-31T16:45:46.255Z,23.86
2018-08-31T16:48:12.205Z,23.90
2018-08-31T16:50:38.255Z,23.85
2018-08-31T16:53:04.209Z,23.92
2018-08-31T16:55:30.170Z,23.94
2018-08-31T16:57:56.124Z,23.87
2018-08-31T17:00:22.093Z,23.93
2018-08-31T17:02:48.056Z,23.89
2018-08-31T17:05:14.029Z,23.95
2018-08-31T17:07:39.990Z,23.92
2018-08-31T17:10:05.981Z,23.87
2018-08-31T17:12:31.923Z,23.92
2018-08-31T17:14:57.875Z,23.86
2018-08-31T17:17:23.818Z,23.88
2018-08-31T17:19:49.780Z,23.88
2018-08-31T17:22:15.735Z,23.90
2018-08-31T17:24:41.687Z,23.87
2018-08-31T17:27:08.502Z,23.89
2018-08-31T17:29:34.497Z,23.91
2018-08-31T17:32:00.469Z,23.93
2018-08-31T17:34:26.434Z,23.87
2018-08-31T17:36:52.421Z,23.87
2018-08-31T17:39:18.391Z,23.84
2018-08-31T17:41:44.456Z,23.85
2018-08-31T17:44:10.474Z,23.84
2018-08-31T17:46:36.503Z,23.87
2018-08-31T17:49:02.455Z,23.82
2018-08-31T17:51:28.421Z,23.85
2018-08-31T17:53:54.407Z,23.87
2018-08-31T17:56:20.452Z,23.83
2018-08-31T17:58:46.341Z,23.83
2018-08-31T18:01:12.297Z,23.96
2018-08-31T18:03:38.251Z,23.93
2018-08-31T18:06:04.248Z,24.04
2018-08-31T18:08:30.215Z,23.89
2018-08-31T18:10:56.164Z,23.91
2018-08-31T18:13:22.144Z,23.90
2018-08-31T18:15:48.136Z,23.85
2018-08-31T18:18:14.057Z,23.88
2018-08-31T18:20:40.029Z,23.91
2018-08-31T18:23:05.985Z,23.87
2018-08-31T18:25:31.952Z,23.83
2018-08-31T18:27:57.901Z,23.81
2018-08-31T18:30:23.875Z,23.84
2018-08-31T18:32:49.846Z,23.85
2018-08-31T18:35:15.828Z,23.82
2018-08-31T18:37:41.783Z,23.84
2018-08-31T18:40:07.808Z,23.83
2018-08-31T18:42:33.742Z,23.86
2018-08-31T18:44:59.695Z,23.83
2018-08-31T18:47:25.672Z,23.82
2018-08-31T18:49:51.620Z,23.84
2018-08-31T18:52:17.654Z,23.92
2018-08-31T18:54:43.572Z,23.89
2018-08-31T18:57:09.569Z,23.86
2018-08-31T18:59:35.527Z,23.84
2018-08-31T19:02:01.489Z,23.87
2018-08-31T19:04:27.504Z,23.89
2018-08-31T19:06:53.506Z,23.84
2018-08-31T19:09:19.444Z,23.88
2018-08-31T19:11:45.383Z,23.85
2018-08-31T19:14:11.372Z,23.85
2018-08-31T19:16:37.318Z,23.84
2018-08-31T19:19:03.273Z,23.82
2018-08-31T19:21:29.226Z,23.83
2018-08-31T19:23:55.239Z,23.78
2018-08-31T19:26:21.211Z,23.86
2018-08-31T19:28:47.228Z,23.84
2018-08-31T19:31:13.192Z,23.87
2018-08-31T19:33:39.196Z,23.81
2018-08-31T19:36:05.167Z,23.85
2018-08-31T19:38:31.231Z,23.84
2018-08-31T19:40:57.330Z,23.81
2018-08-31T19:43:23.302Z,23.81
2018-08-31T19:45:49.260Z,23.80
2018-08-31T19:48:15.369Z,23.80
2018-08-31T19:50:41.365Z,23.80
2018-08-31T19:53:07.346Z,23.86
2018-08-31T19:55:33.347Z,23.78
2018-08-31T19:57:59.309Z,23.78
2018-08-31T20:00:25.280Z,23.79
2018-08-31T20:02:51.252Z,23.81
2018-08-31T20:05:17.208Z,23.79
2018-08-31T20:07:43.152Z,23.77
2018-08-31T20:10:09.111Z,23.84
2018-08-31T20:12:35.113Z,23.82
2018-08-31T20:15:01.076Z,23.80
2018-08-31T20:17:27.048Z,23.79
2018-08-31T20:19:53.744Z,23.86
2018-08-31T20:22:19.683Z,23.84
2018-08-31T20:24:45.731Z,23.80
2018-08-31T20:27:11.767Z,23.81
2018-08-31T20:29:37.734Z,23.79
2018-08-31T20:32:03.696Z,23.82
2018-08-31T20:34:29.756Z,23.78
2018-08-31T20:36:55.905Z,23.83
2018-08-31T20:39:21.921Z,23.85
2018-08-31T20:41:47.872Z,23.81
2018-08-31T20:44:13.858Z,23.84
2018-08-31T20:46:39.816Z,23.82
2018-08-31T20:49:05.836Z,23.89
2018-08-31T20:51:31.797Z,23.81
2018-08-31T20:53:57.821Z,23.82
2018-08-31T20:56:23.780Z,23.79
2018-08-31T20:58:49.733Z,23.77
2018-08-31T21:01:15.764Z,23.89
2018-08-31T21:03:41.720Z,23.79
2018-08-31T21:06:07.680Z,23.78
2018-08-31T21:08:33.638Z,23.74
2018-08-31T21:10:59.590Z,23.73
2018-08-31T21:13:25.571Z,23.72
2018-08-31T21:15:51.553Z,23.70
2018-08-31T21:18:17.499Z,23.71
2018-08-31T21:20:43.477Z,23.72
2018-08-31T21:23:09.519Z,23.70
2018-08-31T21:25:35.465Z,23.70
2018-08-31T21:28:01.453Z,23.73
2018-08-31T21:30:27.413Z,23.70
2018-08-31T21:32:53.385Z,23.68
2018-08-31T21:35:19.337Z,23.67
2018-08-31T21:37:45.311Z,23.69
2018-08-31T21:40:11.312Z,23.68
2018-08-31T21:42:37.424Z,23.66
2018-08-31T21:45:03.296Z,23.65
2018-08-31T21:47:29.258Z,23.63
2018-08-31T21:49:55.208Z,23.64
2018-08-31T21:52:21.140Z,23.64
2018-08-31T21:54:47.184Z,23.67
2018-08-31T21:57:13.141Z,23.66
2018-08-31T21:59:39.105Z,23.62
2018-08-31T22:02:05.064Z,23.61
2018-08-31T22:04:31.028Z,23.60
2018-08-31T22:06:56.992Z,23.60
2018-08-31T22:09:22.951Z,23.62
2018-08-31T22:11:48.899Z,23.60
2018-08-31T22:14:14.846Z,23.57
2018-08-31T22:16:40.807Z,23.61
2018-08-31T22:19:06.751Z,23.60
2018-08-31T22:21:32.831Z,23.55
2018-08-31T22:23:58.805Z,23.53
2018-08-31T22:26:25.059Z,23.56
2018-08-31T22:28:51.014Z,23.53
2018-08-31T22:31:16.972Z,23.56
2018-08-31T22:33:42.928Z,23.59
2018-08-31T22:36:08.968Z,23.58
2018-08-31T22:38:34.908Z,23.50
2018-08-31T22:41:00.907Z,23.50
2018-08-31T22:43:26.939Z,23.53
2018-08-31T22:45:52.905Z,23.53
2018-08-31T22:48:18.911Z,23.52
2018-08-31T22:50:44.873Z,23.49
2018-08-31T22:53:10.825Z,23.46
2018-08-31T22:55:36.794Z,23.47
2018-08-31T22:58:02.747Z,23.58
2018-08-31T23:00:28.726Z,23.45
2018-08-31T23:02:54.695Z,23.47
2018-08-31T23:05:20.680Z,23.48
2018-08-31T23:07:46.865Z,23.49
2018-08-31T23:10:12.895Z,23.48
2018-08-31T23:12:38.872Z,23.47
2018-08-31T23:15:04.828Z,23.48
2018-08-31T23:17:30.791Z,23.47
2018-08-31T23:19:56.739Z,23.50
2018-08-31T23:22:22.716Z,23.43
2018-08-31T23:24:48.681Z,23.45
2018-08-31T23:27:14.639Z,23.47
2018-08-31T23:29:40.596Z,23.47
2018-08-31T23:32:06.594Z,23.42
2018-08-31T23:34:32.615Z,23.43
2018-08-31T23:36:58.562Z,23.46
2018-08-31T23:39:24.555Z,23.61
2018-08-31T23:41:50.508Z,23.50
2018-08-31T23:44:16.480Z,23.41
2018-08-31T23:46:42.436Z,23.40
2018-08-31T23:49:08.388Z,23.40
2018-08-31T23:51:34.343Z,23.41
2018-08-31T23:54:00.292Z,23.43
2018-08-31T23:56:26.244Z,23.43
2018-08-31T23:58:52.199Z,23.47
